Time;durP1;ratioP1;P1;durP2;ratioP2;P2;SDS_P1;SDS_P2;PMS_P1;PMS_P2;Temp;Humidity;BMP_temperature;BMP_pressure;BME280_temperature;BME280_humidity;BME280_pressure;Samples;Min_cycle;Max_cycle;Signal;HPM_P1;HPM_P2
2023/10/20 00:00:51;;;;;;;3.45;2.25;;;;;;;;;;5073948;28;20024;-66
2023/10/20 00:03:16;;;;;;;8.82;3.85;;;;;;;;;;5073988;28;20040;-66
2023/10/20 00:05:42;;;;;;;8.82;2.83;;;;;;;;;;5073736;28;20350;-66
2023/10/20 00:08:07;;;;;;;3.65;2.70;;;;;;;;;;5060984;28;20013;-66
2023/10/20 00:10:35;;;;;;;8.57;3.27;;;;;;;;;;5054254;28;20056;-66
2023/10/20 00:13:00;;;;;;;9.57;3.47;;;;;;;;;;5054253;28;20254;-66
2023/10/20 00:15:26;;;;;;;4.00;2.57;;;;;;;;;;5054154;28;20139;-66
2023/10/20 00:17:51;;;;;;;6.18;2.80;;;;;;;;;;5055069;28;20350;-66
2023/10/20 00:20:16;;;;;;;3.60;2.47;;;;;;;;;;5053902;28;20036;-66
2023/10/20 00:22:41;;;;;;;5.67;3.63;;;;;;;;;;5066016;28;20027;-66
2023/10/20 00:25:06;;;;;;;7.47;2.78;;;;;;;;;;5056471;28;20262;-66
2023/10/20 00:27:32;;;;;;;4.57;2.65;;;;;;;;;;5053862;28;20033;-66
2023/10/20 00:29:57;;;;;;;7.72;3.30;;;;;;;;;;5054121;28;20102;-66
2023/10/20 00:32:22;;;;;;;4.77;2.97;;;;;;;;;;5053807;28;20380;-66
2023/10/20 00:34:47;;;;;;;7.07;3.05;;;;;;;;;;5064500;28;20663;-66
2023/10/20 00:37:13;;;;;;;3.43;2.50;;;;;;;;;;5060105;28;20017;-66
2023/10/20 00:39:38;;;;;;;6.07;2.70;;;;;;;;;;5053660;28;20393;-66
2023/10/20 00:42:03;;;;;;;5.95;3.05;;;;;;;;;;5053454;28;20017;-66
2023/10/20 00:44:29;;;;;;;5.35;2.53;;;;;;;;;;5053538;28;20100;-66
2023/10/20 00:46:54;;;;;;;5.80;2.87;;;;;;;;;;5053463;28;20143;-66
2023/10/20 00:49:20;;;;;;;5.10;3.05;;;;;;;;;;5072328;28;20272;-66
2023/10/20 00:51:45;;;;;;;8.65;2.67;;;;;;;;;;5058921;28;20028;-66
2023/10/20 00:54:13;;;;;;;3.67;2.45;;;;;;;;;;5053258;28;20099;-66
2023/10/20 00:56:39;;;;;;;9.23;3.20;;;;;;;;;;5053395;28;20017;-66
2023/10/20 00:59:04;;;;;;;8.55;2.72;;;;;;;;;;5054410;28;20037;-66
2023/10/20 01:01:30;;;;;;;8.47;3.20;;;;;;;;;;5053099;28;20036;-66
2023/10/20 01:03:55;;;;;;;8.17;3.90;;;;;;;;;;5058903;28;20261;-66
2023/10/20 01:06:20;;;;;;;7.77;4.00;;;;;;;;;;5055980;28;20021;-66
2023/10/20 01:08:45;;;;;;;7.40;3.17;;;;;;;;;;5053165;28;20246;-66
2023/10/20 01:11:10;;;;;;;7.17;2.87;;;;;;;;;;5059047;28;20281;-66
2023/10/20 01:13:36;;;;;;;5.60;2.60;;;;;;;;;;5071396;28;20056;-65
2023/10/20 01:16:02;;;;;;;4.13;2.50;;;;;;;;;;5072862;28;20608;-65
2023/10/20 01:18:28;;;;;;;4.15;2.38;;;;;;;;;;5072903;28;20100;-65
2023/10/20 01:20:54;;;;;;;5.18;2.63;;;;;;;;;;5053813;28;20115;-65
2023/10/20 01:23:19;;;;;;;6.13;2.30;;;;;;;;;;5053915;28;20067;-65
2023/10/20 01:25:44;;;;;;;9.10;2.53;;;;;;;;;;5053226;28;20033;-64
2023/10/20 01:28:10;;;;;;;3.43;2.30;;;;;;;;;;5054037;28;20035;-65
2023/10/20 01:30:35;;;;;;;5.78;2.53;;;;;;;;;;5053214;28;20606;-65
2023/10/20 01:33:00;;;;;;;4.32;2.50;;;;;;;;;;5054453;28;20037;-65
2023/10/20 01:35:25;;;;;;;3.20;2.17;;;;;;;;;;5060262;28;20028;-65
2023/10/20 01:37:51;;;;;;;5.72;2.28;;;;;;;;;;5053157;28;20029;-65
2023/10/20 01:40:17;;;;;;;3.73;2.33;;;;;;;;;;5054860;28;20027;-65
2023/10/20 01:42:42;;;;;;;8.18;2.72;;;;;;;;;;5053122;28;20017;-65
2023/10/20 01:45:09;;;;;;;5.40;2.47;;;;;;;;;;5052909;28;20480;-64
2023/10/20 01:47:34;;;;;;;4.30;2.75;;;;;;;;;;5056884;28;20303;-65
2023/10/20 01:50:00;;;;;;;2.97;2.38;;;;;;;;;;5072245;28;20024;-65
2023/10/20 01:52:26;;;;;;;4.43;2.72;;;;;;;;;;5071981;28;20043;-65
2023/10/20 01:54:51;;;;;;;4.05;2.90;;;;;;;;;;5072413;28;20101;-65
2023/10/20 01:57:16;;;;;;;5.82;2.40;;;;;;;;;;5070804;28;20468;-65
2023/10/20 01:59:42;;;;;;;4.50;2.70;;;;;;;;;;5071922;28;20027;-65
2023/10/20 02:02:07;;;;;;;4.77;3.00;;;;;;;;;;5066299;28;20028;-65
2023/10/20 02:04:32;;;;;;;4.93;2.90;;;;;;;;;;5069220;28;20575;-65
2023/10/20 02:06:57;;;;;;;4.93;2.83;;;;;;;;;;5071798;28;20025;-65
2023/10/20 02:09:25;;;;;;;5.27;2.80;;;;;;;;;;5067013;28;20124;-65
2023/10/20 02:11:57;;;;;;;5.03;2.67;;;;;;;;;;5052565;28;20270;-65
2023/10/20 02:14:22;;;;;;;4.05;2.60;;;;;;;;;;5071805;28;20069;-65
2023/10/20 02:16:47;;;;;;;4.00;2.33;;;;;;;;;;5066495;28;20028;-65
2023/10/20 02:19:14;;;;;;;5.72;2.60;;;;;;;;;;5061506;28;20029;-65
2023/10/20 02:21:40;;;;;;;4.55;2.55;;;;;;;;;;5061671;28;20083;-65
2023/10/20 02:24:05;;;;;;;3.17;2.40;;;;;;;;;;5072697;28;20016;-65
2023/10/20 02:26:30;;;;;;;7.00;2.70;;;;;;;;;;5072621;28;20737;-65
2023/10/20 02:28:55;;;;;;;7.67;2.90;;;;;;;;;;5072529;28;20008;-65
2023/10/20 02:31:21;;;;;;;4.53;2.80;;;;;;;;;;5071939;28;20384;-65
2023/10/20 02:33:46;;;;;;;5.75;3.00;;;;;;;;;;5071071;28;20017;-65
2023/10/20 02:36:18;;;;;;;5.60;2.78;;;;;;;;;;5075439;28;20107;-65
2023/10/20 02:38:43;;;;;;;5.85;2.70;;;;;;;;;;5075295;28;20474;-65
2023/10/20 02:41:08;;;;;;;7.53;2.92;;;;;;;;;;5075522;28;20111;-65
2023/10/20 02:43:34;;;;;;;5.13;2.87;;;;;;;;;;5075292;28;20476;-65
2023/10/20 02:45:59;;;;;;;7.10;2.60;;;;;;;;;;5057210;28;20610;-65
2023/10/20 02:48:24;;;;;;;7.10;3.23;;;;;;;;;;5056000;28;20013;-65
2023/10/20 02:50:50;;;;;;;8.15;2.72;;;;;;;;;;5063192;28;20016;-65
2023/10/20 02:53:15;;;;;;;3.38;2.47;;;;;;;;;;5074794;28;20039;-65
2023/10/20 02:55:41;;;;;;;4.75;2.53;;;;;;;;;;5075272;28;20428;-65
2023/10/20 02:58:07;;;;;;;6.07;3.10;;;;;;;;;;5066716;28;20420;-65
2023/10/20 03:00:33;;;;;;;8.32;3.33;;;;;;;;;;5055645;28;20025;-65
2023/10/20 03:02:58;;;;;;;4.78;3.10;;;;;;;;;;5055732;28;20385;-65
2023/10/20 03:05:27;;;;;;;4.32;2.88;;;;;;;;;;5064432;28;20028;-65
2023/10/20 03:07:52;;;;;;;7.40;3.35;;;;;;;;;;5074747;28;20016;-65
2023/10/20 03:10:17;;;;;;;4.23;2.97;;;;;;;;;;5073388;28;20041;-65
2023/10/20 03:12:43;;;;;;;7.40;3.20;;;;;;;;;;5074494;28;20249;-65
2023/10/20 03:15:11;;;;;;;6.83;3.20;;;;;;;;;;5074800;28;20020;-65
2023/10/20 03:17:36;;;;;;;9.00;3.55;;;;;;;;;;5074082;28;20029;-65
2023/10/20 03:20:01;;;;;;;6.03;3.53;;;;;;;;;;5066649;28;20039;-65
2023/10/20 03:22:27;;;;;;;5.85;3.20;;;;;;;;;;5060103;28;20147;-65
2023/10/20 03:24:53;;;;;;;7.65;3.60;;;;;;;;;;5055248;28;20028;-65
2023/10/20 03:27:19;;;;;;;6.97;3.63;;;;;;;;;;5055291;28;20021;-65
2023/10/20 03:29:44;;;;;;;6.40;4.20;;;;;;;;;;5054968;28;20428;-65
2023/10/20 03:32:10;;;;;;;10.47;4.43;;;;;;;;;;5063212;28;20020;-65
2023/10/20 03:34:35;;;;;;;5.45;3.95;;;;;;;;;;5066064;28;20059;-66
2023/10/20 03:37:01;;;;;;;6.45;3.83;;;;;;;;;;5074411;28;20029;-66
2023/10/20 03:39:27;;;;;;;6.73;3.90;;;;;;;;;;5073891;28;20024;-66
2023/10/20 03:41:53;;;;;;;8.32;3.97;;;;;;;;;;5069133;28;20309;-66
2023/10/20 03:44:21;;;;;;;7.43;4.38;;;;;;;;;;5054611;28;20028;-66
2023/10/20 03:46:49;;;;;;;6.72;4.30;;;;;;;;;;5055886;28;20385;-66
2023/10/20 03:49:15;;;;;;;7.28;4.13;;;;;;;;;;5069536;28;20021;-66
2023/10/20 03:51:46;;;;;;;7.53;4.60;;;;;;;;;;5073877;28;20388;-66
2023/10/20 03:54:11;;;;;;;13.88;4.50;;;;;;;;;;5074129;28;20024;-67
2023/10/20 03:56:36;;;;;;;15.27;4.23;;;;;;;;;;5073687;28;20051;-66
2023/10/20 03:59:01;;;;;;;9.27;4.50;;;;;;;;;;5062719;28;20488;-66
2023/10/20 04:01:27;;;;;;;8.00;4.20;;;;;;;;;;5054218;28;20285;-66
2023/10/20 04:03:52;;;;;;;9.95;4.70;;;;;;;;;;5070524;28;20465;-66
2023/10/20 04:06:18;;;;;;;6.68;4.63;;;;;;;;;;5073584;28;20028;-66
2023/10/20 04:08:44;;;;;;;6.45;4.18;;;;;;;;;;5073870;28;20056;-66
2023/10/20 04:11:09;;;;;;;8.25;4.15;;;;;;;;;;5056323;28;20079;-67
2023/10/20 04:13:35;;;;;;;9.43;4.40;;;;;;;;;;5067084;28;20031;-66
2023/10/20 04:16:11;;;;;;;6.30;4.00;;;;;;;;;;5073418;28;20028;-66
2023/10/20 04:18:37;;;;;;;4.80;3.35;;;;;;;;;;5073377;28;20021;-66
2023/10/20 04:21:03;;;;;;;4.23;2.97;;;;;;;;;;5059592;28;20035;-67
2023/10/20 04:23:28;;;;;;;7.43;3.60;;;;;;;;;;5053943;28;20266;-66
2023/10/20 04:25:53;;;;;;;4.72;3.65;;;;;;;;;;5067816;28;20082;-66
2023/10/20 04:28:32;;;;;;;6.00;3.55;;;;;;;;;;5057380;28;20385;-66
2023/10/20 04:41:57;;;;;;;9.05;4.05;;;;;;;;;;5064132;28;20027;-66
2023/10/20 05:03:15;;;;;;;4.93;3.30;;;;;;;;;;5073737;28;20051;-66
2023/10/20 05:05:43;;;;;;;4.55;3.15;;;;;;;;;;5073414;28;20099;-66
2023/10/20 05:10:33;;;;;;;7.13;3.00;;;;;;;;;;5073154;28;20094;-66
2023/10/20 05:12:59;;;;;;;5.97;2.92;;;;;;;;;;5073554;28;20032;-66
2023/10/20 05:15:24;;;;;;;4.78;3.47;;;;;;;;;;5073498;28;20380;-66
2023/10/20 05:17:50;;;;;;;5.28;2.80;;;;;;;;;;5073532;28;20383;-66
2023/10/20 05:20:20;;;;;;;6.47;3.13;;;;;;;;;;5073408;28;20025;-66
2023/10/20 05:22:45;;;;;;;6.18;3.08;;;;;;;;;;5073432;28;20016;-66
2023/10/20 05:25:14;;;;;;;6.22;3.30;;;;;;;;;;5073146;28;20036;-66
2023/10/20 05:27:39;;;;;;;8.50;3.38;;;;;;;;;;5073432;28;20048;-66
2023/10/20 05:30:04;;;;;;;7.00;3.72;;;;;;;;;;5073131;28;20020;-66
2023/10/20 05:32:31;;;;;;;5.53;2.92;;;;;;;;;;5073059;28;20021;-66
2023/10/20 05:35:03;;;;;;;4.30;2.95;;;;;;;;;;5073049;28;20138;-66
2023/10/20 05:37:29;;;;;;;4.80;2.88;;;;;;;;;;5073332;28;20524;-66
2023/10/20 05:39:54;;;;;;;5.72;2.95;;;;;;;;;;5073295;28;20021;-66
2023/10/20 05:42:19;;;;;;;6.17;3.60;;;;;;;;;;5072985;28;20124;-66
2023/10/20 05:44:58;;;;;;;6.37;3.80;;;;;;;;;;5073013;28;20065;-66
2023/10/20 05:47:24;;;;;;;5.93;3.75;;;;;;;;;;5073221;28;20024;-66
2023/10/20 05:49:49;;;;;;;7.22;3.97;;;;;;;;;;5073000;28;20376;-66
2023/10/20 05:52:14;;;;;;;6.87;3.47;;;;;;;;;;5072962;28;20074;-66
2023/10/20 05:54:40;;;;;;;8.63;3.53;;;;;;;;;;5073188;28;20377;-66
2023/10/20 05:57:05;;;;;;;5.43;3.87;;;;;;;;;;5073126;28;20044;-66
2023/10/20 05:59:31;;;;;;;9.03;3.70;;;;;;;;;;5072814;28;20104;-66
2023/10/20 06:01:58;;;;;;;11.48;3.65;;;;;;;;;;5072782;28;20020;-66
2023/10/20 06:04:23;;;;;;;5.07;2.95;;;;;;;;;;5072760;28;20028;-66
2023/10/20 06:06:48;;;;;;;6.20;2.77;;;;;;;;;;5072822;28;20023;-66
2023/10/20 06:09:16;;;;;;;4.37;2.90;;;;;;;;;;5073762;28;20272;-66
2023/10/20 06:11:42;;;;;;;4.93;2.50;;;;;;;;;;5076447;28;20024;-66
2023/10/20 06:14:07;;;;;;;7.70;2.42;;;;;;;;;;5076699;28;20073;-66
2023/10/20 06:16:32;;;;;;;6.35;2.55;;;;;;;;;;5076515;28;20035;-66
2023/10/20 06:18:57;;;;;;;3.93;2.17;;;;;;;;;;5076379;28;20035;-66
2023/10/20 06:21:22;;;;;;;4.67;2.83;;;;;;;;;;5076546;28;20078;-66
2023/10/20 06:23:48;;;;;;;6.45;2.25;;;;;;;;;;5076278;28;20580;-66
2023/10/20 06:26:14;;;;;;;5.95;2.53;;;;;;;;;;5076249;28;20029;-66
2023/10/20 06:28:39;;;;;;;7.13;2.42;;;;;;;;;;5076463;28;20024;-66
2023/10/20 06:36:48;;;;;;;6.13;2.70;;;;;;;;;;5067615;28;20039;-66
2023/10/20 06:39:15;;;;;;;3.75;2.70;;;;;;;;;;5065430;28;20066;-66
2023/10/20 06:41:40;;;;;;;7.65;2.90;;;;;;;;;;5067461;28;20028;-66
2023/10/20 06:44:05;;;;;;;6.30;3.17;;;;;;;;;;5068902;28;20028;-66
2023/10/20 06:46:30;;;;;;;3.73;2.53;;;;;;;;;;5075802;28;20021;-66
2023/10/20 06:48:56;;;;;;;4.72;2.88;;;;;;;;;;5068935;28;20277;-66
2023/10/20 06:51:21;;;;;;;3.88;2.80;;;;;;;;;;5071976;28;20024;-66
2023/10/20 06:53:46;;;;;;;5.57;3.40;;;;;;;;;;5073105;28;20066;-66
2023/10/20 06:56:12;;;;;;;4.83;3.10;;;;;;;;;;5066363;28;20020;-66
2023/10/20 06:58:37;;;;;;;6.33;3.07;;;;;;;;;;5062925;28;20268;-66
2023/10/20 07:01:05;;;;;;;5.40;3.03;;;;;;;;;;5062397;28;20396;-66
2023/10/20 07:03:32;;;;;;;3.97;2.70;;;;;;;;;;5073591;28;20040;-65
2023/10/20 07:05:57;;;;;;;4.38;3.13;;;;;;;;;;5069310;28;20024;-65
2023/10/20 07:08:22;;;;;;;6.82;3.40;;;;;;;;;;5073532;28;20023;-65
2023/10/20 07:10:50;;;;;;;5.20;3.00;;;;;;;;;;5073791;28;20375;-64
2023/10/20 07:13:17;;;;;;;6.35;3.03;;;;;;;;;;5058033;28;20513;-65
2023/10/20 07:15:43;;;;;;;4.15;3.13;;;;;;;;;;5059300;28;20017;-65
2023/10/20 07:18:08;;;;;;;4.55;2.65;;;;;;;;;;5075318;28;20495;-64
2023/10/20 07:20:38;;;;;;;8.05;2.50;;;;;;;;;;5073538;28;20037;-65
2023/10/20 07:23:05;;;;;;;5.65;2.45;;;;;;;;;;5075268;28;20380;-64
2023/10/20 07:25:30;;;;;;;3.17;2.10;;;;;;;;;;5069007;28;20409;-65
2023/10/20 07:27:55;;;;;;;5.17;2.90;;;;;;;;;;5059807;28;20027;-64
2023/10/20 07:30:20;;;;;;;4.03;2.20;;;;;;;;;;5064781;28;20032;-64
2023/10/20 07:32:46;;;;;;;3.60;2.50;;;;;;;;;;5059152;28;20012;-65
2023/10/20 07:35:11;;;;;;;9.23;3.33;;;;;;;;;;5054050;28;20262;-65
2023/10/20 07:37:37;;;;;;;6.85;3.75;;;;;;;;;;5064994;28;20258;-65
2023/10/20 07:40:04;;;;;;;5.22;2.80;;;;;;;;;;5057790;28;20135;-65
2023/10/20 07:42:30;;;;;;;7.80;3.47;;;;;;;;;;5070554;28;20044;-65
2023/10/20 07:44:56;;;;;;;22.42;12.30;;;;;;;;;;5066415;28;20029;-65
2023/10/20 07:47:21;;;;;;;32.50;17.70;;;;;;;;;;5070053;28;20020;-65
2023/10/20 07:49:47;;;;;;;5.60;3.47;;;;;;;;;;5072713;28;20017;-64
2023/10/20 07:52:12;;;;;;;6.13;4.40;;;;;;;;;;5054687;28;20060;-65
2023/10/20 07:54:37;;;;;;;4.70;3.50;;;;;;;;;;5054808;28;20025;-64
2023/10/20 07:57:03;;;;;;;5.27;2.30;;;;;;;;;;5054566;28;20250;-64
2023/10/20 07:59:28;;;;;;;6.43;3.35;;;;;;;;;;5054474;28;20021;-65
2023/10/20 08:01:54;;;;;;;5.60;2.37;;;;;;;;;;5055794;28;20040;-65
2023/10/20 08:04:19;;;;;;;6.53;3.97;;;;;;;;;;5074357;28;20039;-65
2023/10/20 08:06:44;;;;;;;3.50;2.13;;;;;;;;;;5074581;28;20041;-65
2023/10/20 08:09:11;;;;;;;5.67;3.30;;;;;;;;;;5074220;28;20621;-65
2023/10/20 08:11:37;;;;;;;2.13;1.85;;;;;;;;;;5074321;28;20476;-65
2023/10/20 08:14:02;;;;;;;3.33;2.10;;;;;;;;;;5074519;28;20027;-66
2023/10/20 08:16:27;;;;;;;4.17;2.17;;;;;;;;;;5074401;28;20266;-67
2023/10/20 08:18:52;;;;;;;3.23;2.40;;;;;;;;;;5074068;28;20043;-67
2023/10/20 08:21:19;;;;;;;8.30;2.75;;;;;;;;;;5074209;28;20304;-66
2023/10/20 08:23:44;;;;;;;7.18;3.05;;;;;;;;;;5066118;28;20543;-67
2023/10/20 08:26:16;;;;;;;5.33;2.87;;;;;;;;;;5066130;28;20021;-67
2023/10/20 08:28:41;;;;;;;3.90;2.83;;;;;;;;;;5070826;28;20073;-67
2023/10/20 08:31:07;;;;;;;5.68;2.38;;;;;;;;;;5065155;28;20021;-67
2023/10/20 08:33:33;;;;;;;5.32;2.92;;;;;;;;;;5062404;28;20032;-67
2023/10/20 08:35:59;;;;;;;6.80;2.63;;;;;;;;;;5073967;28;20032;-67
2023/10/20 08:38:24;;;;;;;5.95;2.80;;;;;;;;;;5066443;28;20377;-67
2023/10/20 08:40:49;;;;;;;4.27;2.40;;;;;;;;;;5067235;28;20028;-67
2023/10/20 08:43:14;;;;;;;5.30;2.60;;;;;;;;;;5068914;28;20020;-67
2023/10/20 08:45:40;;;;;;;11.30;3.03;;;;;;;;;;5053775;28;20036;-67
2023/10/20 08:48:05;;;;;;;5.88;2.45;;;;;;;;;;5060355;28;20020;-67
2023/10/20 08:50:31;;;;;;;8.10;2.65;;;;;;;;;;5073814;28;20051;-72
2023/10/20 08:52:58;;;;;;;3.75;2.47;;;;;;;;;;5073544;28;20473;-67
2023/10/20 08:55:23;;;;;;;3.15;2.40;;;;;;;;;;5073721;28;20400;-66
2023/10/20 08:57:49;;;;;;;5.40;2.53;;;;;;;;;;5073460;28;20012;-66
2023/10/20 09:00:20;;;;;;;9.07;2.72;;;;;;;;;;5057714;28;20025;-66
2023/10/20 09:02:46;;;;;;;7.25;2.35;;;;;;;;;;5059674;28;20472;-66
2023/10/20 09:05:12;;;;;;;3.60;2.28;;;;;;;;;;5062304;28;20031;-66
2023/10/20 09:07:37;;;;;;;3.55;2.30;;;;;;;;;;5059403;28;20021;-66
2023/10/20 09:10:02;;;;;;;10.73;2.50;;;;;;;;;;5053141;28;20078;-66
2023/10/20 09:12:32;;;;;;;5.95;2.33;;;;;;;;;;5064549;28;20261;-66
2023/10/20 09:14:57;;;;;;;2.33;1.88;;;;;;;;;;5054010;28;20021;-66
2023/10/20 09:17:22;;;;;;;4.13;2.30;;;;;;;;;;5059090;28;20486;-66
2023/10/20 09:19:48;;;;;;;8.02;3.45;;;;;;;;;;5071510;28;20077;-66
2023/10/20 09:22:13;;;;;;;8.77;3.07;;;;;;;;;;5053095;28;20423;-66
2023/10/20 09:24:40;;;;;;;7.17;2.87;;;;;;;;;;5072154;28;20028;-65
2023/10/20 09:27:07;;;;;;;6.03;2.85;;;;;;;;;;5071668;28;20468;-65
2023/10/20 09:29:32;;;;;;;3.85;2.78;;;;;;;;;;5062043;28;20487;-65
2023/10/20 09:31:59;;;;;;;5.13;3.08;;;;;;;;;;5063128;28;20036;-65
2023/10/20 09:34:24;;;;;;;5.18;3.08;;;;;;;;;;5060925;28;20451;-65
2023/10/20 09:36:51;;;;;;;4.60;3.20;;;;;;;;;;5052984;28;20104;-65
2023/10/20 09:39:21;;;;;;;7.65;3.28;;;;;;;;;;5069080;28;20029;-65
2023/10/20 09:41:48;;;;;;;7.13;3.60;;;;;;;;;;5065471;28;20053;-65
2023/10/20 09:44:19;;;;;;;9.65;5.70;;;;;;;;;;5072395;28;20062;-65
2023/10/20 09:46:55;;;;;;;6.47;3.95;;;;;;;;;;5058017;28;20099;-65
2023/10/20 09:49:21;;;;;;;10.27;5.85;;;;;;;;;;5069683;28;20086;-65
2023/10/20 09:51:47;;;;;;;43.25;31.67;;;;;;;;;;5058118;28;20350;-65
2023/10/20 09:54:17;;;;;;;14.18;9.13;;;;;;;;;;5056878;28;20047;-65
2023/10/20 09:56:44;;;;;;;16.55;6.22;;;;;;;;;;5057016;28;20028;-65
2023/10/20 09:59:09;;;;;;;6.25;4.28;;;;;;;;;;5065350;28;20123;-65
2023/10/20 10:01:37;;;;;;;11.48;6.55;;;;;;;;;;5068257;28;20146;-65
2023/10/20 10:04:04;;;;;;;15.93;10.45;;;;;;;;;;5060178;28;20104;-65
2023/10/20 10:06:34;;;;;;;7.75;4.85;;;;;;;;;;5058064;28;20472;-65
2023/10/20 10:08:59;;;;;;;9.43;7.45;;;;;;;;;;5063758;28;20024;-65
2023/10/20 10:11:28;;;;;;;6.77;4.40;;;;;;;;;;5061652;28;20029;-65
2023/10/20 10:14:01;;;;;;;7.07;3.50;;;;;;;;;;5069313;28;20032;-65
2023/10/20 10:16:26;;;;;;;7.32;2.42;;;;;;;;;;5076067;28;20102;-65
2023/10/20 10:18:54;;;;;;;4.55;2.58;;;;;;;;;;5065276;28;20060;-65
2023/10/20 10:21:26;;;;;;;3.80;1.80;;;;;;;;;;5060093;28;20492;-65
2023/10/20 10:24:08;;;;;;;2.35;1.52;;;;;;;;;;5068437;28;20025;-65
2023/10/20 10:26:33;;;;;;;1.98;1.55;;;;;;;;;;5064956;28;20086;-66
2023/10/20 10:28:58;;;;;;;3.17;1.50;;;;;;;;;;5058946;28;20096;-66
2023/10/20 10:31:33;;;;;;;4.85;1.90;;;;;;;;;;5065436;28;20469;-65
2023/10/20 10:34:04;;;;;;;2.22;1.42;;;;;;;;;;5071512;28;20052;-66
2023/10/20 10:36:29;;;;;;;2.22;1.25;;;;;;;;;;5070086;28;20013;-66
2023/10/20 10:38:55;;;;;;;3.30;1.40;;;;;;;;;;5062214;28;20082;-66
2023/10/20 10:41:24;;;;;;;3.25;1.23;;;;;;;;;;5064669;28;20025;-65
2023/10/20 10:43:55;;;;;;;2.40;1.40;;;;;;;;;;5055870;28;20024;-66
2023/10/20 10:46:32;;;;;;;1.37;1.00;;;;;;;;;;5055688;28;20021;-65
2023/10/20 10:49:04;;;;;;;4.00;1.10;;;;;;;;;;5058711;28;20025;-65
2023/10/20 10:51:30;;;;;;;4.45;1.17;;;;;;;;;;5057538;28;20536;-66
2023/10/20 10:53:55;;;;;;;2.55;1.15;;;;;;;;;;5066630;28;20060;-65
2023/10/20 10:56:21;;;;;;;0.87;0.80;;;;;;;;;;5072857;28;20032;-65
2023/10/20 10:58:47;;;;;;;2.40;0.70;;;;;;;;;;5068230;28;20886;-66
2023/10/20 11:01:12;;;;;;;1.60;0.70;;;;;;;;;;5060261;28;20129;-66
2023/10/20 11:03:37;;;;;;;0.77;0.77;;;;;;;;;;5063785;28;20069;-65
2023/10/20 11:06:03;;;;;;;2.00;0.80;;;;;;;;;;5061356;28;20384;-65
2023/10/20 11:08:29;;;;;;;1.58;0.70;;;;;;;;;;5062134;28;20025;-65
2023/10/20 11:10:57;;;;;;;1.40;0.75;;;;;;;;;;5061133;28;20497;-65
2023/10/20 11:13:22;;;;;;;1.35;0.57;;;;;;;;;;5059915;28;20059;-65
2023/10/20 11:15:49;;;;;;;0.63;0.40;;;;;;;;;;5064072;28;20171;-65
2023/10/20 11:18:16;;;;;;;1.40;0.57;;;;;;;;;;5064019;28;20020;-65
2023/10/20 11:20:42;;;;;;;0.80;0.45;;;;;;;;;;5059640;28;20037;-65
2023/10/20 11:23:07;;;;;;;1.73;0.52;;;;;;;;;;5061900;28;20017;-66
2023/10/20 11:25:33;;;;;;;0.93;0.60;;;;;;;;;;5059907;28;20512;-65
2023/10/20 11:27:58;;;;;;;0.70;0.60;;;;;;;;;;5064127;28;20107;-65
2023/10/20 11:30:24;;;;;;;0.68;0.57;;;;;;;;;;5065012;28;20028;-66
2023/10/20 11:32:49;;;;;;;2.08;0.45;;;;;;;;;;5060872;28;20404;-65
2023/10/20 11:35:14;;;;;;;1.67;0.63;;;;;;;;;;5059954;28;20400;-65
2023/10/20 11:37:39;;;;;;;2.23;0.63;;;;;;;;;;5064537;28;20829;-65
2023/10/20 11:40:07;;;;;;;2.10;0.60;;;;;;;;;;5069605;28;20272;-65
2023/10/20 11:42:32;;;;;;;4.95;0.57;;;;;;;;;;5066743;28;20273;-65
2023/10/20 11:44:57;;;;;;;0.67;0.67;;;;;;;;;;5059261;28;20028;-66
2023/10/20 11:47:23;;;;;;;0.40;0.40;;;;;;;;;;5057000;28;20258;-65
2023/10/20 11:49:48;;;;;;;1.13;0.77;;;;;;;;;;5056792;28;20399;-65
2023/10/20 11:52:13;;;;;;;0.30;0.30;;;;;;;;;;5055586;28;20028;-66
2023/10/20 11:54:38;;;;;;;0.77;0.50;;;;;;;;;;5061732;28;20297;-66
2023/10/20 11:57:04;;;;;;;0.30;0.20;;;;;;;;;;5059858;28;20487;-65
2023/10/20 11:59:29;;;;;;;0.47;0.20;;;;;;;;;;5064984;28;20115;-65
2023/10/20 12:01:54;;;;;;;0.83;0.30;;;;;;;;;;5058751;28;20027;-65
2023/10/20 12:04:19;;;;;;;2.17;0.40;;;;;;;;;;5069579;28;20281;-65
2023/10/20 12:06:45;;;;;;;0.77;0.40;;;;;;;;;;5054349;28;20027;-65
2023/10/20 12:09:16;;;;;;;1.00;0.90;;;;;;;;;;5053789;28;20029;-65
2023/10/20 12:11:41;;;;;;;1.58;1.42;;;;;;;;;;5062190;28;20020;-65
2023/10/20 12:14:09;;;;;;;4.00;1.77;;;;;;;;;;5071816;28;20029;-65
2023/10/20 12:16:34;;;;;;;3.85;2.60;;;;;;;;;;5054074;28;20067;-65
2023/10/20 12:19:05;;;;;;;22.95;11.55;;;;;;;;;;5054393;28;20040;-65
2023/10/20 12:21:31;;;;;;;4.70;3.38;;;;;;;;;;5054294;28;20419;-65
2023/10/20 12:23:56;;;;;;;1.98;1.65;;;;;;;;;;5054297;28;20100;-65
2023/10/20 12:26:22;;;;;;;2.28;1.52;;;;;;;;;;5060164;28;20063;-65
2023/10/20 12:28:49;;;;;;;3.92;1.55;;;;;;;;;;5073277;28;20040;-65
2023/10/20 12:31:14;;;;;;;2.25;1.75;;;;;;;;;;5072182;28;20032;-65
2023/10/20 12:33:40;;;;;;;6.47;1.42;;;;;;;;;;5073517;28;20480;-65
2023/10/20 12:36:05;;;;;;;1.60;1.50;;;;;;;;;;5072768;28;20074;-65
2023/10/20 12:38:30;;;;;;;2.58;1.50;;;;;;;;;;5072051;28;20055;-65
2023/10/20 12:40:56;;;;;;;2.17;1.15;;;;;;;;;;5072792;28;20047;-65
2023/10/20 12:43:21;;;;;;;2.60;1.13;;;;;;;;;;5073120;28;20016;-65
2023/10/20 12:45:47;;;;;;;1.42;1.10;;;;;;;;;;5072996;28;20344;-65
2023/10/20 12:48:12;;;;;;;6.28;1.20;;;;;;;;;;5072947;28;20029;-65
2023/10/20 12:50:38;;;;;;;2.80;1.03;;;;;;;;;;5060941;28;20027;-65
2023/10/20 12:53:04;;;;;;;1.40;1.30;;;;;;;;;;5053406;28;20273;-65
2023/10/20 12:55:30;;;;;;;1.88;1.60;;;;;;;;;;5053685;28;20024;-66
2023/10/20 12:57:56;;;;;;;3.35;1.70;;;;;;;;;;5053635;28;20056;-66
2023/10/20 13:00:21;;;;;;;2.42;1.92;;;;;;;;;;5054268;28;20029;-66
2023/10/20 13:02:50;;;;;;;3.72;1.33;;;;;;;;;;5065376;28;20023;-66
2023/10/20 13:05:15;;;;;;;2.70;1.50;;;;;;;;;;5066246;28;20025;-66
2023/10/20 13:07:41;;;;;;;1.30;1.13;;;;;;;;;;5053131;28;20017;-66
2023/10/20 13:10:07;;;;;;;1.55;1.08;;;;;;;;;;5053212;28;20062;-66
2023/10/20 13:12:32;;;;;;;2.13;0.55;;;;;;;;;;5054248;28;20108;-66
2023/10/20 13:14:57;;;;;;;3.30;1.43;;;;;;;;;;5053104;28;20159;-66
2023/10/20 13:17:22;;;;;;;12.55;4.60;;;;;;;;;;5053017;28;20297;-66
2023/10/20 13:19:49;;;;;;;38.20;9.13;;;;;;;;;;5066096;28;20027;-66
2023/10/20 13:22:15;;;;;;;5.47;1.48;;;;;;;;;;5072280;28;20234;-66
2023/10/20 13:24:40;;;;;;;5.03;1.55;;;;;;;;;;5071372;28;20025;-66
2023/10/20 13:27:06;;;;;;;4.85;1.50;;;;;;;;;;5072506;28;20380;-66
2023/10/20 13:29:31;;;;;;;15.82;4.57;;;;;;;;;;5072097;28;20060;-66
2023/10/20 13:31:56;;;;;;;14.60;3.97;;;;;;;;;;5072530;28;20029;-66
2023/10/20 13:34:22;;;;;;;12.70;4.00;;;;;;;;;;5065619;28;20025;-66
2023/10/20 13:36:47;;;;;;;5.85;2.30;;;;;;;;;;5062872;28;20024;-66
2023/10/20 13:39:12;;;;;;;1.50;0.80;;;;;;;;;;5072375;28;20021;-66
2023/10/20 13:41:37;;;;;;;1.67;0.60;;;;;;;;;;5072528;28;20345;-66
2023/10/20 13:44:03;;;;;;;1.40;0.60;;;;;;;;;;5072332;28;20028;-66
2023/10/20 13:46:28;;;;;;;12.15;3.70;;;;;;;;;;5066780;28;20029;-66
2023/10/20 13:48:54;;;;;;;1.87;1.03;;;;;;;;;;5052951;28;20130;-66
2023/10/20 13:51:19;;;;;;;3.83;0.70;;;;;;;;;;5052843;28;20664;-66
2023/10/20 13:53:44;;;;;;;3.20;0.97;;;;;;;;;;5052768;28;20396;-66
2023/10/20 13:56:11;;;;;;;2.55;0.45;;;;;;;;;;5052658;28;20082;-66
2023/10/20 13:58:36;;;;;;;1.85;0.73;;;;;;;;;;5061293;28;20025;-66
2023/10/20 14:01:02;;;;;;;0.63;0.40;;;;;;;;;;5072160;28;20532;-66
2023/10/20 14:03:29;;;;;;;0.60;0.45;;;;;;;;;;5072349;28;20012;-66
2023/10/20 14:05:54;;;;;;;0.28;0.20;;;;;;;;;;5054459;28;20017;-66
2023/10/20 14:08:20;;;;;;;0.17;0.17;;;;;;;;;;5052699;28;20066;-66
2023/10/20 14:10:45;;;;;;;0.82;0.50;;;;;;;;;;5060417;28;20062;-66
2023/10/20 14:13:10;;;;;;;1.03;0.40;;;;;;;;;;5065849;28;20029;-66
2023/10/20 14:15:36;;;;;;;2.10;0.40;;;;;;;;;;5052797;28;20254;-66
2023/10/20 14:18:01;;;;;;;4.70;0.90;;;;;;;;;;5053002;28;20028;-66
2023/10/20 14:20:27;;;;;;;0.77;0.40;;;;;;;;;;5052837;28;20253;-66
2023/10/20 14:22:52;;;;;;;1.83;0.30;;;;;;;;;;5052705;28;20044;-66
2023/10/20 14:25:17;;;;;;;1.47;0.37;;;;;;;;;;5061411;28;20256;-66
2023/10/20 14:27:42;;;;;;;0.20;0.20;;;;;;;;;;5071933;28;20399;-66
2023/10/20 14:30:08;;;;;;;0.27;0.20;;;;;;;;;;5072931;28;20029;-66
2023/10/20 14:32:33;;;;;;;0.73;0.63;;;;;;;;;;5075514;28;20103;-66
2023/10/20 14:34:58;;;;;;;1.53;0.40;;;;;;;;;;5075289;28;20052;-66
2023/10/20 14:37:23;;;;;;;0.57;0.40;;;;;;;;;;5071483;28;20100;-66
2023/10/20 14:39:49;;;;;;;2.60;0.90;;;;;;;;;;5056022;28;20110;-66
2023/10/20 14:42:14;;;;;;;3.10;0.50;;;;;;;;;;5073760;28;20295;-66
2023/10/20 14:44:39;;;;;;;1.25;0.40;;;;;;;;;;5075369;28;20059;-66
2023/10/20 14:47:05;;;;;;;2.20;0.63;;;;;;;;;;5075317;28;20016;-66
2023/10/20 14:49:31;;;;;;;0.40;0.40;;;;;;;;;;5074919;28;20253;-66
2023/10/20 14:51:57;;;;;;;0.55;0.50;;;;;;;;;;5075468;28;20496;-66
2023/10/20 14:54:22;;;;;;;0.30;0.30;;;;;;;;;;5066240;28;20083;-66
2023/10/20 14:56:47;;;;;;;0.70;0.47;;;;;;;;;;5055616;28;20025;-66
2023/10/20 14:59:13;;;;;;;1.75;0.60;;;;;;;;;;5057001;28;20071;-66
2023/10/20 15:01:38;;;;;;;0.45;0.40;;;;;;;;;;5065159;28;20115;-66
2023/10/20 15:04:05;;;;;;;2.17;0.50;;;;;;;;;;5069347;28;20025;-66
2023/10/20 15:06:30;;;;;;;2.70;0.60;;;;;;;;;;5055388;28;20017;-66
2023/10/20 15:08:56;;;;;;;4.10;0.40;;;;;;;;;;5057617;28;20032;-66
2023/10/20 15:11:21;;;;;;;0.60;0.50;;;;;;;;;;5055431;28;20266;-66
2023/10/20 15:13:46;;;;;;;2.42;0.55;;;;;;;;;;5055776;28;20036;-65